sensor_id;sensor_type;location;lat;lon;timestamp;pressure;altitude;pressure_sealevel;temperature;humidity
79142;BME280;68550;-26.480;29.234;2023-07-31T00:00:58;84791.47;;;18.57;25.26
79142;BME280;68550;-26.480;29.234;2023-07-31T00:03:24;84793.46;;;18.26;25.29
79142;BME280;68550;-26.480;29.234;2023-07-31T00:05:51;84794.19;;;18.78;25.36
79142;BME280;68550;-26.480;29.234;2023-07-31T00:08:16;84792.63;;;18.77;25.26
79142;BME280;68550;-26.480;29.234;2023-07-31T00:10:42;84794.82;;;18.79;25.29
79142;BME280;68550;-26.480;29.234;2023-07-31T00:13:07;84796.70;;;18.82;25.20
79142;BME280;68550;-26.480;29.234;2023-07-31T00:15:32;84799.43;;;18.47;25.26
79142;BME280;68550;-26.480;29.234;2023-07-31T00:17:57;84796.24;;;18.76;25.29
79142;BME280;68550;-26.480;29.234;2023-07-31T00:20:23;84798.29;;;18.69;25.13
79142;BME280;68550;-26.480;29.234;2023-07-31T00:22:48;84798.38;;;18.90;25.24
79142;BME280;68550;-26.480;29.234;2023-07-31T00:25:14;84798.77;;;18.67;25.25
79142;BME280;68550;-26.480;29.234;2023-07-31T00:27:39;84801.61;;;18.94;25.29
79142;BME280;68550;-26.480;29.234;2023-07-31T00:30:06;84803.44;;;18.44;25.28
79142;BME280;68550;-26.480;29.234;2023-07-31T00:32:30;84798.02;;;18.59;25.23
79142;BME280;68550;-26.480;29.234;2023-07-31T00:34:56;84800.29;;;18.50;25.16
79142;BME280;68550;-26.480;29.234;2023-07-31T00:37:21;84798.12;;;18.56;24.74
79142;BME280;68550;-26.480;29.234;2023-07-31T00:39:47;84799.27;;;18.61;25.03
79142;BME280;68550;-26.480;29.234;2023-07-31T00:42:12;84801.27;;;18.53;24.96
79142;BME280;68550;-26.480;29.234;2023-07-31T00:44:38;84800.57;;;18.78;24.72
79142;BME280;68550;-26.480;29.234;2023-07-31T00:47:05;84803.24;;;18.53;24.90
79142;BME280;68550;-26.480;29.234;2023-07-31T00:49:29;84802.76;;;18.51;25.02
79142;BME280;68550;-26.480;29.234;2023-07-31T00:54:20;84804.62;;;18.53;24.84
79142;BME280;68550;-26.480;29.234;2023-07-31T00:56:46;84803.86;;;18.51;24.95
79142;BME280;68550;-26.480;29.234;2023-07-31T00:59:12;84800.66;;;18.26;24.63
79142;BME280;68550;-26.480;29.234;2023-07-31T01:01:37;84798.68;;;18.41;24.98
79142;BME280;68550;-26.480;29.234;2023-07-31T01:04:10;84792.49;;;17.97;24.89
79142;BME280;68550;-26.480;29.234;2023-07-31T01:06:33;84795.02;;;18.44;24.89
79142;BME280;68550;-26.480;29.234;2023-07-31T01:08:58;84795.66;;;18.21;24.99
79142;BME280;68550;-26.480;29.234;2023-07-31T01:11:25;84792.62;;;18.35;24.81
79142;BME280;68550;-26.480;29.234;2023-07-31T01:13:46;84794.26;;;18.35;24.60
79142;BME280;68550;-26.480;29.234;2023-07-31T01:16:10;84791.65;;;18.35;24.83
79142;BME280;68550;-26.480;29.234;2023-07-31T01:18:36;84791.99;;;18.04;24.56
79142;BME280;68550;-26.480;29.234;2023-07-31T01:21:07;84795.42;;;18.03;24.51
79142;BME280;68550;-26.480;29.234;2023-07-31T01:23:46;84795.61;;;18.28;24.69
79142;BME280;68550;-26.480;29.234;2023-07-31T01:26:05;84794.35;;;18.35;24.51
79142;BME280;68550;-26.480;29.234;2023-07-31T01:28:23;84791.42;;;18.41;24.66
79142;BME280;68550;-26.480;29.234;2023-07-31T01:30:47;84793.48;;;18.40;24.52
79142;BME280;68550;-26.480;29.234;2023-07-31T01:33:10;84791.18;;;18.25;24.21
79142;BME280;68550;-26.480;29.234;2023-07-31T01:35:36;84790.57;;;18.23;24.00
79142;BME280;68550;-26.480;29.234;2023-07-31T01:38:01;84788.58;;;17.89;24.32
79142;BME280;68550;-26.480;29.234;2023-07-31T01:40:26;84787.63;;;18.19;23.34
79142;BME280;68550;-26.480;29.234;2023-07-31T01:42:52;84785.56;;;18.18;23.82
79142;BME280;68550;-26.480;29.234;2023-07-31T01:45:17;84784.11;;;18.39;24.02
79142;BME280;68550;-26.480;29.234;2023-07-31T01:47:43;84784.45;;;18.18;24.08
79142;BME280;68550;-26.480;29.234;2023-07-31T01:50:09;84782.27;;;18.20;24.34
79142;BME280;68550;-26.480;29.234;2023-07-31T01:52:34;84781.26;;;18.05;23.85
79142;BME280;68550;-26.480;29.234;2023-07-31T01:55:00;84784.30;;;18.06;24.19
79142;BME280;68550;-26.480;29.234;2023-07-31T01:57:25;84782.65;;;18.11;24.29
79142;BME280;68550;-26.480;29.234;2023-07-31T01:59:53;84783.42;;;18.09;24.27
79142;BME280;68550;-26.480;29.234;2023-07-31T02:02:17;84783.11;;;18.33;24.29
79142;BME280;68550;-26.480;29.234;2023-07-31T02:04:42;84781.41;;;18.02;24.38
79142;BME280;68550;-26.480;29.234;2023-07-31T02:07:07;84779.96;;;18.04;24.00
79142;BME280;68550;-26.480;29.234;2023-07-31T02:09:33;84782.19;;;18.00;24.36
79142;BME280;68550;-26.480;29.234;2023-07-31T02:12:00;84779.98;;;18.25;24.31
79142;BME280;68550;-26.480;29.234;2023-07-31T02:14:24;84785.13;;;18.16;24.13
79142;BME280;68550;-26.480;29.234;2023-07-31T02:16:50;84786.02;;;17.95;23.91
79142;BME280;68550;-26.480;29.234;2023-07-31T02:19:17;84788.09;;;17.99;24.27
79142;BME280;68550;-26.480;29.234;2023-07-31T02:21:43;84786.38;;;17.89;24.51
79142;BME280;68550;-26.480;29.234;2023-07-31T02:24:07;84791.62;;;17.86;24.27
79142;BME280;68550;-26.480;29.234;2023-07-31T02:26:32;84794.10;;;17.87;24.58
79142;BME280;68550;-26.480;29.234;2023-07-31T02:29:00;84792.38;;;18.00;24.24
79142;BME280;68550;-26.480;29.234;2023-07-31T02:31:23;84797.63;;;17.88;24.41
79142;BME280;68550;-26.480;29.234;2023-07-31T02:33:49;84803.25;;;17.72;24.14
79142;BME280;68550;-26.480;29.234;2023-07-31T02:36:17;84805.23;;;17.89;24.44
79142;BME280;68550;-26.480;29.234;2023-07-31T02:38:40;84802.97;;;17.85;24.33
79142;BME280;68550;-26.480;29.234;2023-07-31T02:41:06;84800.96;;;17.87;24.38
79142;BME280;68550;-26.480;29.234;2023-07-31T02:43:31;84799.89;;;17.97;24.34
79142;BME280;68550;-26.480;29.234;2023-07-31T02:45:57;84796.71;;;17.93;24.54
79142;BME280;68550;-26.480;29.234;2023-07-31T02:48:23;84790.17;;;17.71;24.45
79142;BME280;68550;-26.480;29.234;2023-07-31T02:50:48;84789.68;;;18.03;24.43
79142;BME280;68550;-26.480;29.234;2023-07-31T02:53:14;84789.45;;;17.71;24.42
79142;BME280;68550;-26.480;29.234;2023-07-31T02:55:40;84794.06;;;17.74;24.44
79142;BME280;68550;-26.480;29.234;2023-07-31T02:58:05;84794.63;;;17.91;24.36
79142;BME280;68550;-26.480;29.234;2023-07-31T03:00:31;84796.97;;;17.70;24.63
79142;BME280;68550;-26.480;29.234;2023-07-31T03:02:56;84794.38;;;17.83;24.37
79142;BME280;68550;-26.480;29.234;2023-07-31T03:05:22;84793.30;;;17.65;24.54
79142;BME280;68550;-26.480;29.234;2023-07-31T03:11:20;84798.67;;;15.84;26.28
79142;BME280;68550;-26.480;29.234;2023-07-31T03:20:59;84795.95;;;17.56;24.48
79142;BME280;68550;-26.480;29.234;2023-07-31T03:23:26;84795.10;;;17.64;24.50
79142;BME280;68550;-26.480;29.234;2023-07-31T03:38:20;84805.81;;;17.90;23.78
79142;BME280;68550;-26.480;29.234;2023-07-31T03:47:40;84812.28;;;17.59;24.05
79142;BME280;68550;-26.480;29.234;2023-07-31T03:50:06;84816.65;;;17.74;23.83
79142;BME280;68550;-26.480;29.234;2023-07-31T03:52:31;84822.65;;;17.86;23.96
79142;BME280;68550;-26.480;29.234;2023-07-31T04:02:13;84837.10;;;17.47;23.67
79142;BME280;68550;-26.480;29.234;2023-07-31T04:07:05;84851.04;;;17.61;23.77
79142;BME280;68550;-26.480;29.234;2023-07-31T04:09:30;84849.80;;;17.81;23.81
79142;BME280;68550;-26.480;29.234;2023-07-31T04:11:58;84855.33;;;17.51;23.78
79142;BME280;68550;-26.480;29.234;2023-07-31T04:14:21;84854.20;;;17.47;23.86
79142;BME280;68550;-26.480;29.234;2023-07-31T04:16:47;84857.83;;;17.44;23.86
79142;BME280;68550;-26.480;29.234;2023-07-31T04:19:13;84860.00;;;17.57;23.98
79142;BME280;68550;-26.480;29.234;2023-07-31T04:21:45;84856.45;;;17.31;24.33
79142;BME280;68550;-26.480;29.234;2023-07-31T04:24:06;84859.50;;;17.36;24.13
79142;BME280;68550;-26.480;29.234;2023-07-31T04:26:35;84860.10;;;17.44;23.94
79142;BME280;68550;-26.480;29.234;2023-07-31T04:28:55;84862.81;;;17.36;24.16
79142;BME280;68550;-26.480;29.234;2023-07-31T04:31:24;84864.75;;;17.50;24.11
79142;BME280;68550;-26.480;29.234;2023-07-31T04:33:46;84862.31;;;17.25;24.07
79142;BME280;68550;-26.480;29.234;2023-07-31T04:36:14;84862.43;;;17.30;24.37
79142;BME280;68550;-26.480;29.234;2023-07-31T04:38:37;84867.42;;;17.42;24.85
79142;BME280;68550;-26.480;29.234;2023-07-31T04:41:03;84872.97;;;17.23;25.23
79142;BME280;68550;-26.480;29.234;2023-07-31T04:43:28;84874.28;;;17.18;24.81
79142;BME280;68550;-26.480;29.234;2023-07-31T04:45:54;84873.87;;;17.31;25.13
79142;BME280;68550;-26.480;29.234;2023-07-31T04:48:24;84876.76;;;17.08;25.11
79142;BME280;68550;-26.480;29.234;2023-07-31T04:50:50;84879.94;;;17.35;24.82
79142;BME280;68550;-26.480;29.234;2023-07-31T04:53:11;84876.28;;;16.97;25.12
79142;BME280;68550;-26.480;29.234;2023-07-31T04:55:36;84882.28;;;17.17;24.82
79142;BME280;68550;-26.480;29.234;2023-07-31T04:58:02;84885.34;;;17.21;21.81
79142;BME280;68550;-26.480;29.234;2023-07-31T05:00:31;84883.51;;;15.57;21.09
79142;BME280;68550;-26.480;29.234;2023-07-31T05:02:39;84886.47;;;15.57;22.45
79142;BME280;68550;-26.480;29.234;2023-07-31T05:07:30;84889.42;;;17.05;23.57
79142;BME280;68550;-26.480;29.234;2023-07-31T05:09:57;84889.75;;;16.62;23.74
79142;BME280;68550;-26.480;29.234;2023-07-31T05:12:21;84893.94;;;16.64;23.63
79142;BME280;68550;-26.480;29.234;2023-07-31T05:14:48;84898.20;;;16.71;23.78
79142;BME280;68550;-26.480;29.234;2023-07-31T05:17:13;84901.03;;;16.89;23.84
79142;BME280;68550;-26.480;29.234;2023-07-31T05:19:38;84899.96;;;16.92;23.78
79142;BME280;68550;-26.480;29.234;2023-07-31T05:22:04;84896.82;;;16.72;23.86
79142;BME280;68550;-26.480;29.234;2023-07-31T05:24:29;84895.61;;;16.75;23.85
79142;BME280;68550;-26.480;29.234;2023-07-31T05:26:55;84900.94;;;16.55;23.95
79142;BME280;68550;-26.480;29.234;2023-07-31T05:29:21;84898.69;;;16.75;24.29
79142;BME280;68550;-26.480;29.234;2023-07-31T05:31:47;84900.42;;;16.82;24.44
79142;BME280;68550;-26.480;29.234;2023-07-31T05:34:12;84901.77;;;16.99;24.19
79142;BME280;68550;-26.480;29.234;2023-07-31T05:36:38;84903.59;;;16.96;24.26
79142;BME280;68550;-26.480;29.234;2023-07-31T05:39:07;84904.72;;;17.08;24.18
79142;BME280;68550;-26.480;29.234;2023-07-31T05:41:29;84910.55;;;17.18;24.25
79142;BME280;68550;-26.480;29.234;2023-07-31T05:43:54;84913.47;;;17.15;24.12
79142;BME280;68550;-26.480;29.234;2023-07-31T05:46:20;84920.43;;;17.18;24.27
79142;BME280;68550;-26.480;29.234;2023-07-31T05:48:46;84921.10;;;17.31;24.20
79142;BME280;68550;-26.480;29.234;2023-07-31T05:51:12;84919.22;;;17.41;24.27
79142;BME280;68550;-26.480;29.234;2023-07-31T05:53:37;84916.59;;;17.44;24.17
79142;BME280;68550;-26.480;29.234;2023-07-31T05:56:03;84921.81;;;17.39;24.18
79142;BME280;68550;-26.480;29.234;2023-07-31T05:58:28;84924.94;;;17.21;24.04
79142;BME280;68550;-26.480;29.234;2023-07-31T06:00:54;84928.55;;;17.28;24.16
79142;BME280;68550;-26.480;29.234;2023-07-31T06:03:19;84926.66;;;17.54;23.95
79142;BME280;68550;-26.480;29.234;2023-07-31T06:05:44;84931.36;;;17.35;24.03
79142;BME280;68550;-26.480;29.234;2023-07-31T06:08:10;84933.39;;;17.29;24.22
79142;BME280;68550;-26.480;29.234;2023-07-31T06:10:37;84936.16;;;17.66;24.31
79142;BME280;68550;-26.480;29.234;2023-07-31T06:13:01;84938.31;;;17.80;24.18
79142;BME280;68550;-26.480;29.234;2023-07-31T06:15:30;84939.32;;;17.66;24.26
79142;BME280;68550;-26.480;29.234;2023-07-31T06:17:52;84941.85;;;17.98;24.27
79142;BME280;68550;-26.480;29.234;2023-07-31T06:20:18;84949.94;;;17.63;24.14
79142;BME280;68550;-26.480;29.234;2023-07-31T06:22:45;84952.06;;;17.76;24.13
79142;BME280;68550;-26.480;29.234;2023-07-31T06:25:09;84954.47;;;17.49;24.11
79142;BME280;68550;-26.480;29.234;2023-07-31T06:27:39;84958.23;;;17.81;24.17
79142;BME280;68550;-26.480;29.234;2023-07-31T06:30:00;84956.32;;;17.50;24.11
79142;BME280;68550;-26.480;29.234;2023-07-31T06:32:26;84958.54;;;17.89;24.20
79142;BME280;68550;-26.480;29.234;2023-07-31T06:34:52;84965.27;;;17.81;24.05
79142;BME280;68550;-26.480;29.234;2023-07-31T06:37:18;84965.27;;;18.00;24.18
79142;BME280;68550;-26.480;29.234;2023-07-31T06:39:43;84967.61;;;17.99;24.12
79142;BME280;68550;-26.480;29.234;2023-07-31T06:42:09;84969.04;;;17.93;24.18
79142;BME280;68550;-26.480;29.234;2023-07-31T06:44:34;84973.02;;;17.75;24.03
79142;BME280;68550;-26.480;29.234;2023-07-31T06:47:00;84975.80;;;18.25;24.13
79142;BME280;68550;-26.480;29.234;2023-07-31T06:49:25;84973.34;;;17.85;24.12
79142;BME280;68550;-26.480;29.234;2023-07-31T06:51:51;84973.14;;;18.11;24.32
79142;BME280;68550;-26.480;29.234;2023-07-31T06:54:19;84973.13;;;18.01;24.12
79142;BME280;68550;-26.480;29.234;2023-07-31T06:56:42;84974.94;;;17.99;23.77
79142;BME280;68550;-26.480;29.234;2023-07-31T06:59:08;84977.05;;;17.95;24.10
79142;BME280;68550;-26.480;29.234;2023-07-31T07:01:34;84972.06;;;18.05;24.07
79142;BME280;68550;-26.480;29.234;2023-07-31T07:03:59;84981.51;;;18.22;23.88
79142;BME280;68550;-26.480;29.234;2023-07-31T07:06:25;84979.48;;;18.03;23.89
79142;BME280;68550;-26.480;29.234;2023-07-31T07:08:50;84983.37;;;18.09;24.00
79142;BME280;68550;-26.480;29.234;2023-07-31T07:11:16;84987.22;;;18.10;24.06
79142;BME280;68550;-26.480;29.234;2023-07-31T07:13:42;84992.24;;;18.17;23.98
79142;BME280;68550;-26.480;29.234;2023-07-31T07:16:07;84999.18;;;18.42;24.06
79142;BME280;68550;-26.480;29.234;2023-07-31T07:18:33;85001.24;;;18.24;23.92
79142;BME280;68550;-26.480;29.234;2023-07-31T07:20:58;85005.45;;;18.22;24.05
79142;BME280;68550;-26.480;29.234;2023-07-31T07:23:24;85005.12;;;18.22;24.09
79142;BME280;68550;-26.480;29.234;2023-07-31T07:25:49;85010.67;;;18.20;23.89
79142;BME280;68550;-26.480;29.234;2023-07-31T07:28:15;85012.72;;;18.16;23.80
79142;BME280;68550;-26.480;29.234;2023-07-31T07:30:41;85012.60;;;18.46;23.89
79142;BME280;68550;-26.480;29.234;2023-07-31T07:33:06;85020.76;;;18.25;23.84
79142;BME280;68550;-26.480;29.234;2023-07-31T07:35:35;85023.71;;;18.40;23.95
79142;BME280;68550;-26.480;29.234;2023-07-31T07:45:14;85037.70;;;18.61;23.59
79142;BME280;68550;-26.480;29.234;2023-07-31T07:52:59;85041.13;;;18.65;23.27
79142;BME280;68550;-26.480;29.234;2023-07-31T07:54:56;85042.22;;;18.68;23.47
79142;BME280;68550;-26.480;29.234;2023-07-31T08:14:22;85034.06;;;18.69;23.43
79142;BME280;68550;-26.480;29.234;2023-07-31T08:16:48;85026.59;;;18.74;23.53
79142;BME280;68550;-26.480;29.234;2023-07-31T08:19:13;85026.76;;;18.90;23.51
79142;BME280;68550;-26.480;29.234;2023-07-31T08:21:38;85029.55;;;18.70;23.53
79142;BME280;68550;-26.480;29.234;2023-07-31T08:24:05;85021.37;;;18.87;23.43
79142;BME280;68550;-26.480;29.234;2023-07-31T08:26:28;85025.93;;;18.85;23.48
79142;BME280;68550;-26.480;29.234;2023-07-31T08:28:55;85021.31;;;18.79;23.42
79142;BME280;68550;-26.480;29.234;2023-07-31T08:31:20;85021.54;;;18.85;23.39
79142;BME280;68550;-26.480;29.234;2023-07-31T08:33:45;85020.91;;;18.88;23.55
79142;BME280;68550;-26.480;29.234;2023-07-31T08:36:11;85015.24;;;18.61;23.53
79142;BME280;68550;-26.480;29.234;2023-07-31T08:38:36;85012.88;;;18.77;23.50
79142;BME280;68550;-26.480;29.234;2023-07-31T08:41:05;85009.82;;;18.54;23.51
79142;BME280;68550;-26.480;29.234;2023-07-31T08:43:29;85004.20;;;18.75;23.36
79142;BME280;68550;-26.480;29.234;2023-07-31T08:45:54;85001.59;;;18.46;23.35
79142;BME280;68550;-26.480;29.234;2023-07-31T08:48:23;84998.38;;;18.77;23.43
79142;BME280;68550;-26.480;29.234;2023-07-31T08:50:44;84998.72;;;18.60;23.57
79142;BME280;68550;-26.480;29.234;2023-07-31T08:53:10;84999.27;;;18.91;23.60
79142;BME280;68550;-26.480;29.234;2023-07-31T08:55:38;84988.44;;;18.84;23.58
79142;BME280;68550;-26.480;29.234;2023-07-31T08:58:01;84984.96;;;18.83;23.42
79142;BME280;68550;-26.480;29.234;2023-07-31T09:00:27;84984.00;;;18.70;23.34
79142;BME280;68550;-26.480;29.234;2023-07-31T09:02:59;84980.47;;;18.95;23.36
79142;BME280;68550;-26.480;29.234;2023-07-31T09:05:18;84978.79;;;18.75;23.02
79142;BME280;68550;-26.480;29.234;2023-07-31T09:07:45;84968.74;;;18.26;23.27
79142;BME280;68550;-26.480;29.234;2023-07-31T09:10:10;84968.66;;;18.84;23.39
79142;BME280;68550;-26.480;29.234;2023-07-31T09:12:34;84963.45;;;18.59;23.44
79142;BME280;68550;-26.480;29.234;2023-07-31T09:15:01;84960.70;;;18.67;23.40
79142;BME280;68550;-26.480;29.234;2023-07-31T09:17:32;84957.56;;;18.59;23.42
79142;BME280;68550;-26.480;29.234;2023-07-31T09:19:52;84958.88;;;18.87;23.36
79142;BME280;68550;-26.480;29.234;2023-07-31T09:22:17;84948.53;;;18.86;23.42
79142;BME280;68550;-26.480;29.234;2023-07-31T09:24:42;84944.34;;;18.65;23.38
79142;BME280;68550;-26.480;29.234;2023-07-31T09:27:08;84947.37;;;18.78;23.50
79142;BME280;68550;-26.480;29.234;2023-07-31T09:29:34;84942.22;;;18.36;23.43
79142;BME280;68550;-26.480;29.234;2023-07-31T09:32:00;84940.92;;;18.81;23.60
79142;BME280;68550;-26.480;29.234;2023-07-31T09:34:30;84939.25;;;18.95;23.55
79142;BME280;68550;-26.480;29.234;2023-07-31T09:36:52;84927.98;;;18.47;23.58
79142;BME280;68550;-26.480;29.234;2023-07-31T09:39:17;84933.07;;;18.89;23.16
79142;BME280;68550;-26.480;29.234;2023-07-31T09:41:47;84929.06;;;18.98;23.41
79142;BME280;68550;-26.480;29.234;2023-07-31T09:44:08;84926.12;;;18.47;23.49
79142;BME280;68550;-26.480;29.234;2023-07-31T09:46:35;84918.37;;;18.99;23.54
79142;BME280;68550;-26.480;29.234;2023-07-31T09:49:04;84923.46;;;18.68;23.62
79142;BME280;68550;-26.480;29.234;2023-07-31T09:51:27;84919.94;;;18.67;23.32
79142;BME280;68550;-26.480;29.234;2023-07-31T09:53:52;84920.11;;;18.89;23.58
79142;BME280;68550;-26.480;29.234;2023-07-31T09:56:15;84911.44;;;18.98;23.66
79142;BME280;68550;-26.480;29.234;2023-07-31T09:58:40;84905.40;;;18.94;23.67
79142;BME280;68550;-26.480;29.234;2023-07-31T10:01:08;84902.21;;;18.46;23.72
79142;BME280;68550;-26.480;29.234;2023-07-31T10:03:32;84901.82;;;18.50;23.76
79142;BME280;68550;-26.480;29.234;2023-07-31T10:05:57;84896.76;;;19.01;23.78
79142;BME280;68550;-26.480;29.234;2023-07-31T10:08:27;84901.99;;;18.77;23.80
79142;BME280;68550;-26.480;29.234;2023-07-31T10:10:48;84900.77;;;18.98;23.83
79142;BME280;68550;-26.480;29.234;2023-07-31T10:13:16;84894.00;;;18.99;23.83
79142;BME280;68550;-26.480;29.234;2023-07-31T10:15:39;84889.46;;;19.01;23.93
79142;BME280;68550;-26.480;29.234;2023-07-31T10:18:07;84879.69;;;18.76;23.95
79142;BME280;68550;-26.480;29.234;2023-07-31T10:20:31;84878.44;;;18.97;23.79
79142;BME280;68550;-26.480;29.234;2023-07-31T10:22:57;84876.91;;;19.08;23.91
79142;BME280;68550;-26.480;29.234;2023-07-31T10:25:25;84868.20;;;19.04;23.72
79142;BME280;68550;-26.480;29.234;2023-07-31T10:27:48;84864.67;;;18.78;23.77
79142;BME280;68550;-26.480;29.234;2023-07-31T10:30:15;84861.14;;;18.54;23.83
79142;BME280;68550;-26.480;29.234;2023-07-31T10:32:40;84853.52;;;19.00;23.61
79142;BME280;68550;-26.480;29.234;2023-07-31T10:35:05;84850.80;;;18.95;23.79
79142;BME280;68550;-26.480;29.234;2023-07-31T10:37:35;84846.11;;;18.68;23.82
79142;BME280;68550;-26.480;29.234;2023-07-31T10:39:59;84841.10;;;19.01;23.84
79142;BME280;68550;-26.480;29.234;2023-07-31T10:42:31;84838.12;;;18.53;23.83
79142;BME280;68550;-26.480;29.234;2023-07-31T10:44:47;84835.23;;;18.72;23.95
79142;BME280;68550;-26.480;29.234;2023-07-31T10:47:15;84837.39;;;18.80;23.95
79142;BME280;68550;-26.480;29.234;2023-07-31T10:49:41;84833.98;;;18.53;23.98
79142;BME280;68550;-26.480;29.234;2023-07-31T10:52:05;84833.78;;;18.77;24.03
79142;BME280;68550;-26.480;29.234;2023-07-31T10:54:28;84826.53;;;19.02;24.03
79142;BME280;68550;-26.480;29.234;2023-07-31T10:56:54;84827.79;;;18.49;24.12
79142;BME280;68550;-26.480;29.234;2023-07-31T10:59:20;84822.74;;;19.07;23.94
79142;BME280;68550;-26.480;29.234;2023-07-31T11:01:52;84817.16;;;18.70;23.64
79142;BME280;68550;-26.480;29.234;2023-07-31T11:04:11;84817.04;;;18.79;23.91
79142;BME280;68550;-26.480;29.234;2023-07-31T11:06:37;84817.15;;;18.97;23.87
79142;BME280;68550;-26.480;29.234;2023-07-31T11:09:02;84817.44;;;18.47;23.66
79142;BME280;68550;-26.480;29.234;2023-07-31T11:11:27;84808.75;;;18.98;23.51
79142;BME280;68550;-26.480;29.234;2023-07-31T11:13:55;84805.71;;;18.71;23.75
79142;BME280;68550;-26.480;29.234;2023-07-31T11:16:21;84804.88;;;18.44;23.78
79142;BME280;68550;-26.480;29.234;2023-07-31T11:18:46;84798.23;;;18.71;23.90
79142;BME280;68550;-26.480;29.234;2023-07-31T11:21:13;84798.69;;;18.98;23.87
79142;BME280;68550;-26.480;29.234;2023-07-31T11:23:37;84803.00;;;18.90;23.72
79142;BME280;68550;-26.480;29.234;2023-07-31T11:26:04;84798.69;;;18.96;23.42
79142;BME280;68550;-26.480;29.234;2023-07-31T11:28:30;84798.43;;;18.98;23.68
79142;BME280;68550;-26.480;29.234;2023-07-31T11:30:52;84795.39;;;18.65;23.70
79142;BME280;68550;-26.480;29.234;2023-07-31T11:33:20;84790.80;;;17.88;24.51
79142;BME280;68550;-26.480;29.234;2023-07-31T11:35:45;84786.95;;;18.59;23.50
79142;BME280;68550;-26.480;29.234;2023-07-31T11:38:10;84784.13;;;18.98;23.62
79142;BME280;68550;-26.480;29.234;2023-07-31T11:40:41;84781.94;;;19.01;23.54
79142;BME280;68550;-26.480;29.234;2023-07-31T11:43:04;84782.96;;;18.89;23.43
79142;BME280;68550;-26.480;29.234;2023-07-31T11:45:26;84781.06;;;18.67;23.19
79142;BME280;68550;-26.480;29.234;2023-07-31T11:47:51;84778.19;;;18.65;23.14
79142;BME280;68550;-26.480;29.234;2023-07-31T11:50:17;84775.35;;;18.40;23.18
79142;BME280;68550;-26.480;29.234;2023-07-31T11:52:45;84770.52;;;18.79;23.09
79142;BME280;68550;-26.480;29.234;2023-07-31T11:55:09;84775.42;;;18.91;22.95
79142;BME280;68550;-26.480;29.234;2023-07-31T11:57:34;84775.28;;;18.69;23.21
79142;BME280;68550;-26.480;29.234;2023-07-31T12:00:01;84763.83;;;18.65;23.36
79142;BME280;68550;-26.480;29.234;2023-07-31T12:02:27;84774.18;;;18.82;23.11
79142;BME280;68550;-26.480;29.234;2023-07-31T12:04:50;84770.17;;;18.85;23.07
79142;BME280;68550;-26.480;29.234;2023-07-31T12:07:16;84766.83;;;18.86;23.06
79142;BME280;68550;-26.480;29.234;2023-07-31T12:12:09;84763.31;;;18.87;23.27
79142;BME280;68550;-26.480;29.234;2023-07-31T12:14:33;84769.06;;;18.68;23.46
79142;BME280;68550;-26.480;29.234;2023-07-31T12:17:03;84763.53;;;18.90;23.36
79142;BME280;68550;-26.480;29.234;2023-07-31T12:19:25;84766.38;;;18.92;23.52
79142;BME280;68550;-26.480;29.234;2023-07-31T12:21:51;84767.18;;;18.88;23.20
79142;BME280;68550;-26.480;29.234;2023-07-31T12:24:18;84769.77;;;18.62;23.31
79142;BME280;68550;-26.480;29.234;2023-07-31T12:26:40;84768.28;;;18.73;23.48
79142;BME280;68550;-26.480;29.234;2023-07-31T12:29:08;84772.16;;;18.93;23.14
79142;BME280;68550;-26.480;29.234;2023-07-31T12:31:34;84760.34;;;18.34;23.07
79142;BME280;68550;-26.480;29.234;2023-07-31T12:33:57;84759.98;;;18.63;22.91
79142;BME280;68550;-26.480;29.234;2023-07-31T12:36:23;84766.01;;;18.66;23.19
79142;BME280;68550;-26.480;29.234;2023-07-31T12:38:48;84761.54;;;18.80;23.38
79142;BME280;68550;-26.480;29.234;2023-07-31T12:41:16;84765.94;;;18.95;23.47
79142;BME280;68550;-26.480;29.234;2023-07-31T12:43:41;84765.77;;;18.67;23.22
79142;BME280;68550;-26.480;29.234;2023-07-31T12:46:05;84765.51;;;18.87;23.31
79142;BME280;68550;-26.480;29.234;2023-07-31T12:48:31;84765.07;;;18.66;23.20
79142;BME280;68550;-26.480;29.234;2023-07-31T12:50:55;84765.33;;;18.63;23.10
79142;BME280;68550;-26.480;29.234;2023-07-31T12:53:21;84767.77;;;17.93;23.41
79142;BME280;68550;-26.480;29.234;2023-07-31T12:55:47;84767.33;;;18.57;23.11
79142;BME280;68550;-26.480;29.234;2023-07-31T12:58:12;84767.77;;;18.62;22.96
79142;BME280;68550;-26.480;29.234;2023-07-31T13:00:38;84770.24;;;18.74;22.80
79142;BME280;68550;-26.480;29.234;2023-07-31T13:03:03;84763.43;;;18.90;22.98
79142;BME280;68550;-26.480;29.234;2023-07-31T13:05:30;84765.26;;;18.45;22.91
79142;BME280;68550;-26.480;29.234;2023-07-31T13:07:55;84765.73;;;18.79;23.08
79142;BME280;68550;-26.480;29.234;2023-07-31T13:10:21;84766.89;;;18.79;23.06
79142;BME280;68550;-26.480;29.234;2023-07-31T13:12:46;84772.74;;;18.39;23.17
79142;BME280;68550;-26.480;29.234;2023-07-31T13:15:11;84777.05;;;18.96;23.07
79142;BME280;68550;-26.480;29.234;2023-07-31T13:17:40;84771.96;;;18.82;23.10
79142;BME280;68550;-26.480;29.234;2023-07-31T13:20:03;84774.07;;;18.68;22.87
79142;BME280;68550;-26.480;29.234;2023-07-31T13:22:28;84774.11;;;18.76;22.74
79142;BME280;68550;-26.480;29.234;2023-07-31T13:24:54;84776.49;;;18.34;22.65
79142;BME280;68550;-26.480;29.234;2023-07-31T13:27:20;84776.20;;;18.72;22.60
79142;BME280;68550;-26.480;29.234;2023-07-31T13:29:45;84776.76;;;18.64;22.54
79142;BME280;68550;-26.480;29.234;2023-07-31T13:32:12;84776.43;;;18.73;22.55
79142;BME280;68550;-26.480;29.234;2023-07-31T13:34:36;84777.70;;;18.54;22.67
79142;BME280;68550;-26.480;29.234;2023-07-31T13:37:02;84779.22;;;18.87;22.67
79142;BME280;68550;-26.480;29.234;2023-07-31T13:39:27;84780.38;;;18.92;22.80
79142;BME280;68550;-26.480;29.234;2023-07-31T13:41:53;84778.85;;;18.94;22.96
79142;BME280;68550;-26.480;29.234;2023-07-31T13:44:21;84775.03;;;18.37;22.83
79142;BME280;68550;-26.480;29.234;2023-07-31T13:46:44;84781.45;;;18.81;22.79